createdAt,value
2017-11-15T00:00:09.843Z,11.86
2017-11-15T00:02:37.491Z,11.92
2017-11-15T00:05:05.107Z,11.79
2017-11-15T00:07:33.607Z,11.69
2017-11-15T00:10:01.381Z,11.90
2017-11-15T00:12:29.001Z,11.91
2017-11-15T00:14:56.571Z,11.77
2017-11-15T00:17:24.327Z,11.60
2017-11-15T00:19:51.896Z,11.82
2017-11-15T00:22:43.175Z,11.95
2017-11-15T00:25:10.764Z,11.99
2017-11-15T00:27:38.571Z,11.81
2017-11-15T00:30:06.876Z,11.89
2017-11-15T00:32:34.659Z,11.95
2017-11-15T00:35:02.415Z,11.97
2017-11-15T00:37:30.059Z,11.90
2017-11-15T00:39:57.702Z,11.89
2017-11-15T00:42:26.080Z,11.82
2017-11-15T00:44:53.699Z,11.82
2017-11-15T00:47:21.517Z,11.87
2017-11-15T00:49:49.073Z,11.87
2017-11-15T00:52:16.651Z,11.91
2017-11-15T00:54:44.413Z,11.79
2017-11-15T00:57:12.171Z,11.77
2017-11-15T00:59:39.789Z,11.82
2017-11-15T01:02:07.376Z,11.81
2017-11-15T01:04:35.101Z,11.51
2017-11-15T01:07:02.935Z,11.36
2017-11-15T01:09:30.540Z,11.42
2017-11-15T01:11:58.231Z,11.47
2017-11-15T01:14:25.817Z,11.63
2017-11-15T01:16:53.425Z,11.40
2017-11-15T01:19:21.011Z,11.45
2017-11-15T01:21:48.615Z,11.58
2017-11-15T01:24:16.268Z,11.70
2017-11-15T01:26:43.799Z,11.84
2017-11-15T01:29:11.448Z,11.65
2017-11-15T01:31:39.079Z,11.28
2017-11-15T01:34:06.681Z,11.47
2017-11-15T01:36:34.587Z,11.41
2017-11-15T01:39:02.216Z,11.58
2017-11-15T01:41:29.839Z,11.63
2017-11-15T01:43:57.446Z,11.92
2017-11-15T01:46:25.065Z,11.65
2017-11-15T01:48:52.690Z,11.79
2017-11-15T01:51:20.533Z,11.25
2017-11-15T01:53:48.149Z,11.58
2017-11-15T01:56:15.872Z,11.36
2017-11-15T01:58:43.464Z,11.36
2017-11-15T02:01:17.938Z,11.38
2017-11-15T02:03:45.575Z,11.35
2017-11-15T02:06:13.199Z,11.32
2017-11-15T02:08:40.903Z,11.29
2017-11-15T02:11:08.437Z,11.17
2017-11-15T02:13:35.979Z,11.14
2017-11-15T02:16:03.549Z,11.46
2017-11-15T02:18:31.379Z,11.54
2017-11-15T02:20:58.963Z,11.41
2017-11-15T02:23:26.601Z,11.15
2017-11-15T02:25:54.188Z,11.29
2017-11-15T02:28:21.983Z,11.17
2017-11-15T02:30:50.358Z,11.36
2017-11-15T02:33:17.946Z,11.41
2017-11-15T02:35:45.515Z,11.58
2017-11-15T02:38:13.120Z,11.43
2017-11-15T02:40:40.682Z,11.55
2017-11-15T02:43:08.310Z,11.41
2017-11-15T02:45:36.059Z,11.15
2017-11-15T02:48:03.804Z,11.22
2017-11-15T02:50:31.588Z,11.48
2017-11-15T02:52:59.242Z,11.32
2017-11-15T02:55:26.793Z,11.19
2017-11-15T02:57:54.413Z,11.34
2017-11-15T03:00:22.123Z,11.37
2017-11-15T03:02:49.759Z,11.62
2017-11-15T03:05:17.349Z,11.54
2017-11-15T03:07:45.035Z,11.67
2017-11-15T03:10:12.848Z,11.39
2017-11-15T03:12:40.614Z,10.90
2017-11-15T03:15:08.287Z,11.10
2017-11-15T03:17:35.895Z,11.32
2017-11-15T03:20:03.510Z,11.58
2017-11-15T03:22:31.123Z,11.01
2017-11-15T03:24:58.683Z,11.16
2017-11-15T03:27:26.464Z,11.35
2017-11-15T03:29:54.116Z,11.29
2017-11-15T03:32:21.708Z,11.11
2017-11-15T03:34:49.228Z,11.01
2017-11-15T03:37:16.819Z,10.83
2017-11-15T03:39:44.513Z,10.98
2017-11-15T03:42:12.373Z,11.08
2017-11-15T03:44:39.911Z,11.09
2017-11-15T03:47:07.527Z,11.22
2017-11-15T03:49:35.107Z,11.15
2017-11-15T03:52:02.641Z,11.04
2017-11-15T03:54:30.291Z,11.37
2017-11-15T03:56:57.881Z,11.50
2017-11-15T03:59:25.691Z,11.29
2017-11-15T04:01:53.267Z,11.09
2017-11-15T04:04:21.067Z,11.03
2017-11-15T04:06:48.809Z,11.06
2017-11-15T04:09:16.474Z,11.07
2017-11-15T04:11:44.080Z,11.04
2017-11-15T04:14:11.630Z,11.02
2017-11-15T04:16:39.822Z,10.86
2017-11-15T04:19:07.395Z,11.01
2017-11-15T04:21:34.989Z,11.04
2017-11-15T04:24:02.611Z,11.03
2017-11-15T04:26:30.436Z,10.93
2017-11-15T04:28:58.187Z,11.02
2017-11-15T04:31:25.807Z,11.03
2017-11-15T04:33:53.400Z,11.01
2017-11-15T04:36:21.015Z,10.97
2017-11-15T04:38:48.670Z,10.91
2017-11-15T04:41:16.285Z,11.33
2017-11-15T04:43:43.870Z,11.00
2017-11-15T04:46:12.072Z,11.09
2017-11-15T04:48:39.886Z,11.13
2017-11-15T04:51:07.508Z,11.23
2017-11-15T04:53:35.090Z,10.84
2017-11-15T04:56:02.653Z,10.64
2017-11-15T04:58:30.197Z,10.43
2017-11-15T05:00:57.850Z,10.60
2017-11-15T05:03:26.159Z,10.90
2017-11-15T05:05:53.791Z,10.96
2017-11-15T05:08:22.082Z,11.04
2017-11-15T05:13:31.211Z,11.52
2017-11-15T05:15:59.465Z,11.37
2017-11-15T05:18:27.964Z,11.27
2017-11-15T05:20:56.442Z,11.08
2017-11-15T05:23:24.271Z,11.15
2017-11-15T05:25:52.128Z,11.18
2017-11-15T05:28:19.854Z,11.04
2017-11-15T05:30:47.742Z,11.22
2017-11-15T05:33:16.200Z,10.69
2017-11-15T05:35:43.874Z,10.91
2017-11-15T05:38:11.630Z,11.08
2017-11-15T05:40:39.412Z,11.09
2017-11-15T05:43:07.073Z,10.95
2017-11-15T05:45:34.771Z,11.17
2017-11-15T05:48:02.398Z,11.27
2017-11-15T05:50:29.945Z,10.47
2017-11-15T05:52:57.546Z,10.90
2017-11-15T05:55:25.110Z,11.12
2017-11-15T05:57:52.972Z,11.13
2017-11-15T06:00:20.617Z,10.97
2017-11-15T06:02:48.462Z,11.13
2017-11-15T06:05:16.307Z,11.12
2017-11-15T06:07:43.917Z,11.12
2017-11-15T06:10:12.117Z,11.18
2017-11-15T06:12:41.723Z,11.26
2017-11-15T06:15:09.345Z,11.24
2017-11-15T06:17:37.030Z,11.20
2017-11-15T06:20:04.592Z,11.40
2017-11-15T06:22:32.376Z,11.21
2017-11-15T06:25:00.007Z,11.42
2017-11-15T06:27:27.859Z,11.39
2017-11-15T06:29:55.545Z,11.43
2017-11-15T06:32:23.398Z,11.16
2017-11-15T06:34:52.263Z,11.19
2017-11-15T06:37:19.867Z,10.95
2017-11-15T06:39:47.450Z,10.59
2017-11-15T06:42:15.850Z,10.84
2017-11-15T06:44:43.511Z,11.04
2017-11-15T06:47:11.161Z,11.02
2017-11-15T06:49:40.515Z,11.12
2017-11-15T06:52:09.054Z,11.24
2017-11-15T06:54:36.633Z,11.23
2017-11-15T06:57:04.420Z,11.32
2017-11-15T06:59:32.070Z,11.61
2017-11-15T07:01:59.696Z,11.40
2017-11-15T07:04:27.234Z,11.60
2017-11-15T07:06:54.823Z,11.59
2017-11-15T07:09:22.534Z,11.61
2017-11-15T07:11:50.154Z,11.76
2017-11-15T07:14:17.715Z,11.96
2017-11-15T07:16:45.335Z,11.79
2017-11-15T07:19:12.983Z,11.82
2017-11-15T07:21:40.663Z,11.77
2017-11-15T07:24:08.367Z,11.79
2017-11-15T07:26:36.028Z,11.80
2017-11-15T07:29:03.604Z,11.76
2017-11-15T07:31:31.271Z,11.72
2017-11-15T07:33:58.869Z,11.75
2017-11-15T07:36:26.406Z,11.88
2017-11-15T07:38:54.028Z,11.87
2017-11-15T07:41:22.441Z,11.92
2017-11-15T07:43:50.798Z,11.92
2017-11-15T07:46:19.275Z,11.82
2017-11-15T07:48:46.909Z,11.99
2017-11-15T07:51:14.462Z,11.91
2017-11-15T07:53:42.041Z,11.99
2017-11-15T07:56:09.553Z,11.89
2017-11-15T07:58:37.089Z,11.83
2017-11-15T08:01:04.699Z,11.81
2017-11-15T08:03:32.288Z,11.91
2017-11-15T08:05:59.868Z,12.04
2017-11-15T08:08:27.558Z,12.00
2017-11-15T08:10:55.124Z,12.06
2017-11-15T08:13:23.387Z,12.03
2017-11-15T08:15:51.965Z,12.12
2017-11-15T08:18:19.589Z,12.14
2017-11-15T08:20:47.150Z,12.05
2017-11-15T08:23:16.565Z,12.00
2017-11-15T08:25:44.300Z,12.02
2017-11-15T08:28:12.422Z,12.29
2017-11-15T08:30:40.007Z,12.25
2017-11-15T08:33:07.648Z,12.24
2017-11-15T08:35:35.181Z,12.14
2017-11-15T08:38:02.774Z,12.41
2017-11-15T08:40:30.370Z,12.28
2017-11-15T08:42:57.988Z,12.34
2017-11-15T08:45:25.621Z,12.38
2017-11-15T08:47:53.214Z,12.43
2017-11-15T08:50:20.773Z,12.54
2017-11-15T08:52:48.467Z,12.37
2017-11-15T08:55:16.128Z,12.30
2017-11-15T08:57:43.901Z,12.62
2017-11-15T09:00:11.627Z,12.56
2017-11-15T09:02:39.208Z,12.49
2017-11-15T09:05:06.750Z,12.40
2017-11-15T09:07:34.342Z,12.51
2017-11-15T09:10:01.969Z,12.57
2017-11-15T09:12:29.571Z,12.64
2017-11-15T09:14:57.167Z,12.51
2017-11-15T09:17:24.768Z,12.50
2017-11-15T09:19:52.296Z,12.23
2017-11-15T09:22:19.879Z,12.09
2017-11-15T09:24:47.493Z,12.09
2017-11-15T09:27:15.829Z,11.70
2017-11-15T09:29:43.396Z,11.95
2017-11-15T09:32:11.083Z,11.82
2017-11-15T09:34:38.618Z,11.92
2017-11-15T09:37:06.148Z,11.69
2017-11-15T09:39:33.848Z,11.56
2017-11-15T09:42:01.387Z,11.85
2017-11-15T09:44:28.969Z,11.89
2017-11-15T09:46:56.564Z,11.92
2017-11-15T09:49:24.110Z,12.14
2017-11-15T09:51:51.638Z,11.86
2017-11-15T09:54:19.262Z,12.02
2017-11-15T09:56:46.827Z,12.18
2017-11-15T09:59:14.509Z,12.17
2017-11-15T10:01:42.067Z,12.16
2017-11-15T10:04:09.683Z,12.19
2017-11-15T10:06:37.199Z,12.17
2017-11-15T10:09:05.071Z,12.32
2017-11-15T10:11:32.651Z,12.36
2017-11-15T10:14:00.928Z,12.09
2017-11-15T10:16:28.559Z,12.23
2017-11-15T10:18:56.078Z,12.25
2017-11-15T10:21:23.791Z,12.29
2017-11-15T10:23:51.437Z,12.28
2017-11-15T10:26:19.079Z,12.16
2017-11-15T10:28:46.650Z,12.20
2017-11-15T10:31:14.548Z,12.02
2017-11-15T10:33:42.117Z,12.08
2017-11-15T10:36:09.894Z,12.20
2017-11-15T10:38:37.501Z,11.98
2017-11-15T10:41:11.772Z,11.97
2017-11-15T10:43:39.412Z,12.10
2017-11-15T10:46:08.312Z,12.21
2017-11-15T10:48:36.809Z,12.25
2017-11-15T10:51:09.068Z,12.18
2017-11-15T10:53:36.629Z,12.22
2017-11-15T10:56:04.292Z,12.17
2017-11-15T10:58:33.404Z,12.07
2017-11-15T11:01:01.027Z,12.17
2017-11-15T11:03:28.566Z,11.88
2017-11-15T11:05:56.154Z,12.03
2017-11-15T11:08:39.431Z,12.13
2017-11-15T11:11:07.016Z,12.02
2017-11-15T11:13:34.648Z,11.89
2017-11-15T11:16:02.238Z,11.92
2017-11-15T11:18:30.180Z,11.82
2017-11-15T11:20:57.882Z,11.96
2017-11-15T11:23:25.463Z,12.07
2017-11-15T11:25:54.124Z,12.04
2017-11-15T11:28:22.172Z,12.20
2017-11-15T11:30:49.853Z,11.84
2017-11-15T11:33:17.610Z,11.85
2017-11-15T11:35:45.951Z,11.86
2017-11-15T11:38:13.652Z,11.89
2017-11-15T11:40:41.193Z,11.99
2017-11-15T11:43:08.770Z,11.93
2017-11-15T11:45:36.404Z,11.96
2017-11-15T11:48:03.985Z,12.06
2017-11-15T11:50:31.567Z,11.77
2017-11-15T11:52:59.243Z,11.80
2017-11-15T11:55:26.756Z,11.90
2017-11-15T11:57:54.335Z,11.78
2017-11-15T12:00:21.919Z,11.90
2017-11-15T12:02:49.499Z,11.80
2017-11-15T12:05:17.108Z,11.76
2017-11-15T12:07:44.827Z,11.84
2017-11-15T12:10:12.339Z,11.99
2017-11-15T12:12:40.816Z,12.05
2017-11-15T12:15:08.420Z,12.14
2017-11-15T12:17:36.018Z,12.18
2017-11-15T12:20:03.597Z,12.11
2017-11-15T12:22:31.550Z,11.99
2017-11-15T12:24:59.160Z,11.92
2017-11-15T12:27:26.745Z,11.94
2017-11-15T12:29:54.367Z,11.95
2017-11-15T12:32:21.951Z,11.95
2017-11-15T12:34:49.529Z,12.13
2017-11-15T12:37:17.307Z,12.16
2017-11-15T12:39:45.128Z,12.14
2017-11-15T12:42:12.725Z,12.28
2017-11-15T12:44:40.323Z,12.10
2017-11-15T12:47:08.574Z,12.03
2017-11-15T12:49:36.107Z,12.16
2017-11-15T12:52:05.071Z,11.95
2017-11-15T12:54:32.729Z,11.88
2017-11-15T12:57:01.593Z,11.82
2017-11-15T12:59:29.279Z,11.85
2017-11-15T13:01:57.161Z,11.93
2017-11-15T13:04:26.932Z,12.01
2017-11-15T13:06:54.551Z,11.76
2017-11-15T13:09:22.168Z,11.93
2017-11-15T13:11:49.756Z,12.03
2017-11-15T13:14:17.345Z,11.91
2017-11-15T13:16:46.771Z,12.11
2017-11-15T13:19:14.367Z,11.92
2017-11-15T13:21:42.020Z,11.96
2017-11-15T13:24:10.414Z,11.83
2017-11-15T13:26:38.583Z,11.86
2017-11-15T13:29:27.671Z,11.72
2017-11-15T13:31:55.237Z,11.79
2017-11-15T13:34:22.889Z,11.85
2017-11-15T13:36:51.987Z,12.06
2017-11-15T13:39:20.494Z,11.74
2017-11-15T13:44:37.674Z,11.82
2017-11-15T13:47:05.250Z,11.66
2017-11-15T13:49:33.754Z,11.95
2017-11-15T13:52:01.305Z,11.66
2017-11-15T13:54:29.055Z,11.76
2017-11-15T13:56:56.607Z,11.73
2017-11-15T13:59:24.255Z,11.74
2017-11-15T14:01:51.840Z,11.71
2017-11-15T14:04:20.247Z,11.70
2017-11-15T14:06:47.866Z,11.69
2017-11-15T14:09:15.492Z,11.71
2017-11-15T14:11:43.016Z,11.75
2017-11-15T14:14:10.541Z,11.58
2017-11-15T14:16:38.866Z,11.48
2017-11-15T14:19:06.511Z,11.58
2017-11-15T14:21:38.736Z,11.53
2017-11-15T14:24:07.116Z,11.60
2017-11-15T14:26:34.659Z,11.49
2017-11-15T14:29:02.219Z,11.39
2017-11-15T14:31:29.791Z,11.28
2017-11-15T14:33:58.509Z,11.03
2017-11-15T14:36:26.795Z,11.27
2017-11-15T14:38:54.427Z,11.18
2017-11-15T14:41:21.954Z,11.17
2017-11-15T14:43:50.975Z,11.14
2017-11-15T14:46:18.616Z,11.13
2017-11-15T14:48:46.162Z,11.03
2017-11-15T14:51:13.700Z,10.98
2017-11-15T14:53:41.902Z,11.06
2017-11-15T14:56:10.008Z,11.05
2017-11-15T14:58:37.609Z,10.96
2017-11-15T15:01:05.214Z,11.16
2017-11-15T15:03:36.229Z,10.98
2017-11-15T15:06:04.179Z,11.06
2017-11-15T15:08:34.599Z,10.81
2017-11-15T15:11:03.129Z,10.84
2017-11-15T15:13:30.647Z,11.08
2017-11-15T15:16:00.546Z,10.92
2017-11-15T15:18:28.077Z,10.92
2017-11-15T15:23:38.821Z,10.90
2017-11-15T15:26:06.445Z,10.82
2017-11-15T15:28:35.890Z,10.81
2017-11-15T15:31:03.492Z,10.96
2017-11-15T15:33:31.020Z,10.85
2017-11-15T15:35:59.383Z,10.79
2017-11-15T15:38:27.016Z,10.68
2017-11-15T15:40:54.539Z,10.77
2017-11-15T15:43:22.147Z,10.87
2017-11-15T15:45:52.346Z,10.64
2017-11-15T15:48:34.334Z,10.70
2017-11-15T15:51:01.999Z,10.84
2017-11-15T15:53:31.306Z,10.95
2017-11-15T15:55:58.847Z,10.74
2017-11-15T15:58:31.914Z,10.89
2017-11-15T16:01:08.941Z,10.82
2017-11-15T16:06:35.580Z,10.87
2017-11-15T16:09:07.660Z,10.87
2017-11-15T16:12:06.096Z,10.92
2017-11-15T16:17:44.345Z,11.06
2017-11-15T16:20:18.070Z,10.93
2017-11-15T16:22:46.433Z,10.64
2017-11-15T16:25:14.019Z,10.96
2017-11-15T16:27:51.988Z,11.61
2017-11-15T16:30:19.884Z,11.50
2017-11-15T16:32:47.440Z,11.16
2017-11-15T16:35:16.217Z,11.25
2017-11-15T16:40:53.994Z,11.21
2017-11-15T16:43:22.083Z,11.31
2017-11-15T16:45:49.813Z,11.15
2017-11-15T16:48:17.493Z,11.02
2017-11-15T16:50:45.250Z,11.31
2017-11-15T16:53:14.005Z,11.30
2017-11-15T16:55:41.585Z,11.18
2017-11-15T16:58:09.936Z,11.05
2017-11-15T17:00:37.546Z,11.33
2017-11-15T17:03:08.625Z,11.31
2017-11-15T17:05:44.737Z,11.26
2017-11-15T17:08:14.501Z,11.38
2017-11-15T17:10:43.058Z,11.20
2017-11-15T17:16:50.650Z,11.01
2017-11-15T17:19:18.929Z,11.14
2017-11-15T17:21:46.630Z,11.22
2017-11-15T17:24:16.343Z,11.27
2017-11-15T17:26:44.732Z,11.34
2017-11-15T17:29:13.078Z,11.11
2017-11-15T17:31:47.679Z,11.36
2017-11-15T17:34:18.511Z,11.17
2017-11-15T17:36:54.711Z,11.22
2017-11-15T17:39:22.282Z,11.27
2017-11-15T17:41:53.952Z,11.19
2017-11-15T17:44:21.771Z,11.24
2017-11-15T17:46:49.411Z,11.10
2017-11-15T17:49:17.012Z,11.20
2017-11-15T17:51:48.511Z,11.21
2017-11-15T17:54:16.034Z,11.28
2017-11-15T17:56:43.607Z,11.08
2017-11-15T17:59:11.801Z,11.23
2017-11-15T18:01:40.563Z,11.39
2017-11-15T18:04:08.099Z,11.61
2017-11-15T18:06:36.967Z,11.65
2017-11-15T18:09:06.520Z,11.54
2017-11-15T18:11:34.085Z,11.66
2017-11-15T18:14:01.803Z,11.51
2017-11-15T18:16:29.450Z,11.71
2017-11-15T18:18:57.104Z,11.73
2017-11-15T18:21:24.873Z,11.76
2017-11-15T18:23:52.515Z,11.73
2017-11-15T18:26:20.105Z,11.64
2017-11-15T18:28:47.657Z,11.50
2017-11-15T18:31:15.278Z,11.37
2017-11-15T18:33:44.002Z,11.44
2017-11-15T18:36:12.415Z,11.35
2017-11-15T18:38:43.688Z,11.24
2017-11-15T18:41:14.196Z,11.08
2017-11-15T18:43:41.767Z,11.29
2017-11-15T18:46:16.621Z,10.97
2017-11-15T18:48:46.578Z,11.20
2017-11-15T18:51:41.532Z,11.03
2017-11-15T18:54:09.140Z,10.99
2017-11-15T18:56:36.661Z,11.07
2017-11-15T18:59:04.318Z,10.78
2017-11-15T19:01:32.771Z,11.01
2017-11-15T19:04:00.310Z,11.03
2017-11-15T19:06:27.874Z,10.94
2017-11-15T19:08:55.488Z,11.02
2017-11-15T19:11:23.090Z,11.06
2017-11-15T19:13:50.694Z,11.11
2017-11-15T19:16:18.286Z,11.02
2017-11-15T19:18:45.882Z,11.09
2017-11-15T19:21:13.485Z,10.97
2017-11-15T19:23:42.716Z,10.96
2017-11-15T19:26:10.731Z,11.17
2017-11-15T19:28:38.342Z,11.15
2017-11-15T19:31:05.983Z,10.94
2017-11-15T19:33:33.594Z,11.18
2017-11-15T19:36:01.110Z,10.96
2017-11-15T19:38:28.711Z,10.90
2017-11-15T19:40:56.271Z,10.92
2017-11-15T19:43:23.856Z,10.86
2017-11-15T19:45:51.454Z,10.95
2017-11-15T19:48:18.979Z,10.96
2017-11-15T19:50:46.531Z,10.65
2017-11-15T19:53:16.227Z,10.87
2017-11-15T19:55:43.998Z,10.83
2017-11-15T19:58:11.598Z,10.71
2017-11-15T20:00:39.278Z,10.86
2017-11-15T20:03:06.813Z,11.02
2017-11-15T20:05:34.616Z,11.05
2017-11-15T20:08:02.248Z,10.93
2017-11-15T20:10:29.841Z,10.98
2017-11-15T20:12:57.432Z,10.92
2017-11-15T20:15:24.994Z,10.83
2017-11-15T20:17:52.587Z,11.07
2017-11-15T20:20:20.344Z,11.01
2017-11-15T20:22:47.956Z,10.92
2017-11-15T20:25:15.505Z,10.91
2017-11-15T20:27:43.030Z,10.93
2017-11-15T20:30:10.800Z,11.00
2017-11-15T20:32:38.339Z,10.78
2017-11-15T20:35:05.846Z,10.89
2017-11-15T20:37:33.424Z,10.83
2017-11-15T20:40:01.913Z,10.88
2017-11-15T20:42:29.724Z,10.91
2017-11-15T20:44:57.339Z,10.95
2017-11-15T20:47:25.185Z,10.85
2017-11-15T20:49:52.798Z,10.81
2017-11-15T20:52:20.363Z,11.05
2017-11-15T20:54:47.985Z,10.86
2017-11-15T20:57:15.527Z,11.02
2017-11-15T20:59:43.199Z,11.08
2017-11-15T21:02:11.781Z,11.00
2017-11-15T21:04:39.440Z,10.95
2017-11-15T21:07:06.991Z,10.98
2017-11-15T21:09:34.573Z,10.87
2017-11-15T21:12:02.160Z,10.93
2017-11-15T21:14:29.986Z,10.90
2017-11-15T21:16:57.610Z,10.87
2017-11-15T21:19:25.125Z,10.77
2017-11-15T21:21:54.071Z,10.91
2017-11-15T21:24:22.835Z,10.85
2017-11-15T21:26:50.387Z,10.86
2017-11-15T21:29:19.175Z,10.94
2017-11-15T21:31:46.874Z,10.86
2017-11-15T21:34:15.295Z,10.68
2017-11-15T21:36:42.904Z,10.86
2017-11-15T21:39:10.573Z,10.81
2017-11-15T21:41:38.146Z,10.87
2017-11-15T21:44:05.671Z,10.91
2017-11-15T21:46:33.481Z,10.68
2017-11-15T21:49:01.045Z,10.59
2017-11-15T21:51:29.013Z,10.76
2017-11-15T21:53:56.616Z,10.81
2017-11-15T21:56:24.134Z,10.60
2017-11-15T21:58:51.718Z,10.63
2017-11-15T22:01:19.381Z,10.64
2017-11-15T22:03:46.990Z,10.55
2017-11-15T22:06:14.508Z,10.41
2017-11-15T22:08:42.063Z,10.59
2017-11-15T22:11:09.579Z,10.49
2017-11-15T22:13:37.161Z,10.36
2017-11-15T22:16:04.986Z,10.46
2017-11-15T22:18:32.649Z,10.55
2017-11-15T22:21:00.474Z,10.64
2017-11-15T22:23:28.068Z,10.60
2017-11-15T22:25:55.602Z,10.54
2017-11-15T22:28:23.151Z,10.47
2017-11-15T22:30:50.774Z,10.47
2017-11-15T22:33:18.319Z,10.46
2017-11-15T22:35:45.846Z,10.32
2017-11-15T22:38:13.491Z,10.41
2017-11-15T22:40:41.047Z,10.37
2017-11-15T22:43:08.621Z,10.50
2017-11-15T22:45:40.063Z,10.45
2017-11-15T22:51:14.990Z,10.60
2017-11-15T22:53:42.503Z,10.60
2017-11-15T22:56:10.008Z,10.54
2017-11-15T22:58:37.612Z,10.52
2017-11-15T23:01:05.199Z,10.64
2017-11-15T23:03:32.728Z,10.52
2017-11-15T23:06:00.291Z,10.52
2017-11-15T23:08:27.875Z,10.65
2017-11-15T23:10:55.426Z,10.63
2017-11-15T23:13:23.024Z,10.62
2017-11-15T23:15:50.659Z,10.66
2017-11-15T23:18:18.241Z,10.72
2017-11-15T23:20:45.877Z,10.79
2017-11-15T23:23:14.102Z,10.67
2017-11-15T23:25:41.622Z,10.73
2017-11-15T23:28:09.159Z,10.89
2017-11-15T23:30:36.814Z,10.79
2017-11-15T23:33:04.446Z,10.82
2017-11-15T23:35:31.977Z,10.69
2017-11-15T23:37:59.580Z,10.82
2017-11-15T23:40:27.339Z,10.78
2017-11-15T23:42:54.942Z,10.81
2017-11-15T23:45:22.528Z,10.82
2017-11-15T23:47:50.050Z,10.85
2017-11-15T23:50:17.577Z,10.67
2017-11-15T23:52:45.344Z,10.84
2017-11-15T23:55:12.864Z,10.81
2017-11-15T23:57:40.376Z,10.83
